Time;durP1;ratioP1;P1;durP2;ratioP2;P2;SDS_P1;SDS_P2;PMS_P1;PMS_P2;Temp;Humidity;BMP_temperature;BMP_pressure;BME280_temperature;BME280_humidity;BME280_pressure;Samples;Min_cycle;Max_cycle;Signal;HPM_P1;HPM_P2
2021/06/11 00:02:20;;;;;;;12.73;11.73;;;22.80;68.20;;;;;;5034741;28;20215;-91
2021/06/11 00:04:45;;;;;;;14.02;12.93;;;22.70;67.10;;;;;;5046912;28;20180;-93
2021/06/11 00:07:11;;;;;;;12.65;11.82;;;22.60;68.50;;;;;;5050513;28;20184;-93
2021/06/11 00:09:37;;;;;;;13.25;12.00;;;22.50;68.80;;;;;;5068169;28;20248;-91
2021/06/11 00:12:03;;;;;;;13.52;12.38;;;22.20;70.10;;;;;;5050075;28;20227;-92
2021/06/11 00:14:28;;;;;;;13.50;12.35;;;22.00;70.60;;;;;;5049740;28;20176;-92
2021/06/11 00:16:54;;;;;;;12.60;11.65;;;22.10;69.90;;;;;;5070312;28;20211;-91
2021/06/11 00:19:20;;;;;;;12.88;11.80;;;22.30;69.60;;;;;;5056177;28;20180;-92
2021/06/11 00:21:45;;;;;;;12.93;11.93;;;22.40;69.40;;;;;;5055351;28;20257;-92
2021/06/11 00:24:11;;;;;;;13.20;12.18;;;22.30;69.70;;;;;;5081057;28;20179;-92
2021/06/11 00:26:36;;;;;;;12.27;11.23;;;22.30;69.40;;;;;;5068401;28;20183;-92
2021/06/11 00:29:02;;;;;;;14.00;13.00;;;22.50;69.30;;;;;;5079091;28;20184;-93
2021/06/11 00:31:28;;;;;;;12.40;11.50;;;22.30;69.30;;;;;;5095493;28;20218;-94
2021/06/11 00:33:53;;;;;;;13.63;12.48;;;22.30;69.60;;;;;;5082424;28;20263;-93
2021/06/11 00:36:19;;;;;;;14.63;13.57;;;22.30;69.60;;;;;;5053512;28;20216;-92
2021/06/11 00:38:45;;;;;;;13.77;12.65;;;22.20;69.60;;;;;;5071308;28;20177;-93
2021/06/11 00:41:10;;;;;;;13.80;12.60;;;22.20;69.50;;;;;;5037467;28;20180;-93
2021/06/11 00:43:36;;;;;;;13.00;12.10;;;22.20;69.60;;;;;;5071320;28;20267;-94
2021/06/11 00:46:02;;;;;;;13.75;12.75;;;22.20;69.60;;;;;;5072105;28;20216;-93
2021/06/11 00:48:27;;;;;;;14.05;13.05;;;22.00;69.70;;;;;;5057550;28;20208;-93
2021/06/11 00:50:53;;;;;;;13.90;12.63;;;21.70;71.40;;;;;;5076624;28;20175;-91
2021/06/11 00:53:19;;;;;;;14.45;13.35;;;21.40;73.50;;;;;;5097429;28;20220;-93
2021/06/11 00:55:45;;;;;;;14.07;12.93;;;21.10;74.30;;;;;;5074710;28;20197;-93
2021/06/11 00:58:13;;;;;;;14.20;13.10;;;20.90;74.10;;;;;;5075911;28;20174;-94
2021/06/11 01:00:39;;;;;;;14.60;13.30;;;21.00;73.90;;;;;;5071659;28;20214;-93
2021/06/11 01:03:05;;;;;;;14.60;13.25;;;21.20;73.20;;;;;;5071943;28;20219;-95
2021/06/11 01:05:31;;;;;;;14.07;12.95;;;21.30;72.60;;;;;;5054859;28;20239;-92
2021/06/11 01:07:57;;;;;;;12.82;11.68;;;21.40;71.80;;;;;;5054991;28;20191;-93
2021/06/11 01:10:24;;;;;;;13.95;12.60;;;21.60;71.70;;;;;;5037775;28;20187;-93
2021/06/11 01:12:51;;;;;;;13.60;12.60;;;21.70;72.10;;;;;;5071713;28;20216;-93
2021/06/11 01:15:17;;;;;;;14.07;13.05;;;21.70;71.00;;;;;;5054359;28;20172;-92
2021/06/11 01:17:44;;;;;;;13.65;12.65;;;21.60;70.70;;;;;;5053690;28;20179;-93
2021/06/11 01:20:13;;;;;;;13.30;12.10;;;21.30;72.20;;;;;;5053817;28;20178;-93
2021/06/11 01:23:03;;;;;;;13.57;12.38;;;21.10;72.90;;;;;;5047006;28;20198;-92
2021/06/11 01:25:35;;;;;;;13.18;12.27;;;21.20;72.60;;;;;;5071458;28;20182;-93
2021/06/11 01:28:03;;;;;;;13.68;12.68;;;21.00;73.20;;;;;;5071002;28;20217;-93
2021/06/11 01:30:30;;;;;;;13.48;12.38;;;20.90;74.10;;;;;;5085464;28;20212;-92
2021/06/11 01:32:58;;;;;;;13.13;12.07;;;20.90;73.70;;;;;;5074435;28;20226;-91
2021/06/11 01:35:31;;;;;;;13.18;12.18;;;21.10;72.90;;;;;;5092555;28;20272;-91
2021/06/11 01:38:02;;;;;;;14.02;12.82;;;21.10;72.60;;;;;;5074758;28;20186;-92
2021/06/11 01:40:28;;;;;;;13.68;12.45;;;21.10;72.30;;;;;;5074632;28;20179;-94
2021/06/11 01:42:56;;;;;;;14.10;12.90;;;21.20;72.00;;;;;;5057917;28;20205;-92
2021/06/11 01:45:23;;;;;;;13.32;12.27;;;21.20;72.10;;;;;;5075190;28;20191;-92
2021/06/11 01:47:51;;;;;;;13.05;12.15;;;21.30;71.90;;;;;;5074454;28;20202;-93
2021/06/11 01:50:27;;;;;;;12.77;11.85;;;21.30;71.60;;;;;;5092320;28;20174;-93
2021/06/11 01:52:54;;;;;;;14.13;13.02;;;21.30;71.40;;;;;;5091858;28;20244;-92
2021/06/11 01:55:21;;;;;;;13.57;12.57;;;21.30;70.90;;;;;;5092527;28;20198;-94
2021/06/11 01:57:48;;;;;;;13.90;12.73;;;21.30;70.70;;;;;;5075275;28;20186;-93
2021/06/11 02:00:17;;;;;;;14.13;13.00;;;21.00;72.20;;;;;;5096648;28;20201;-90
2021/06/11 02:02:43;;;;;;;13.73;12.73;;;21.00;71.90;;;;;;5089829;28;20198;-93
2021/06/11 02:05:10;;;;;;;13.55;12.55;;;20.70;74.50;;;;;;5076675;28;20190;-91
2021/06/11 02:07:36;;;;;;;13.73;12.43;;;20.70;74.10;;;;;;5061194;28;20164;-91
2021/06/11 02:10:08;;;;;;;12.65;11.75;;;20.80;73.60;;;;;;5054767;28;20196;-93
2021/06/11 02:12:34;;;;;;;13.20;12.20;;;20.80;74.00;;;;;;5053959;28;20238;-92
2021/06/11 02:15:01;;;;;;;13.07;11.98;;;20.80;73.40;;;;;;5053348;28;20179;-92
2021/06/11 02:17:28;;;;;;;13.52;12.35;;;20.80;73.30;;;;;;5071482;28;20210;-93
2021/06/11 02:19:54;;;;;;;13.95;12.95;;;20.80;73.80;;;;;;5071150;28;20539;-91
2021/06/11 02:22:20;;;;;;;13.43;12.30;;;21.00;73.70;;;;;;5060069;28;20215;-92
2021/06/11 02:24:46;;;;;;;13.88;12.57;;;20.90;73.80;;;;;;5074084;28;20567;-91
2021/06/11 02:27:13;;;;;;;13.88;12.82;;;20.70;73.90;;;;;;5074428;28;20195;-90
2021/06/11 02:29:39;;;;;;;14.02;12.93;;;20.70;75.60;;;;;;5091667;28;20184;-94
2021/06/11 02:32:06;;;;;;;15.07;12.77;;;20.70;75.60;;;;;;5074842;28;20214;-92
2021/06/11 02:34:32;;;;;;;14.30;13.07;;;20.70;74.70;;;;;;5092546;28;20179;-93
2021/06/11 02:36:59;;;;;;;15.15;13.93;;;20.80;75.30;;;;;;5093035;28;20180;-93
2021/06/11 02:39:25;;;;;;;13.40;12.40;;;20.70;76.40;;;;;;5095490;28;20211;-92
2021/06/11 02:41:59;;;;;;;13.57;12.50;;;20.70;74.70;;;;;;5095399;28;20213;-92
2021/06/11 02:44:30;;;;;;;14.00;12.90;;;20.80;74.30;;;;;;5077754;28;20185;-91
2021/06/11 02:47:15;;;;;;;13.45;12.45;;;20.80;73.50;;;;;;5077071;28;20193;-94
2021/06/11 02:50:03;;;;;;;14.20;12.98;;;20.90;72.90;;;;;;5077384;28;20169;-91
2021/06/11 02:52:31;;;;;;;13.30;12.20;;;20.90;72.90;;;;;;5079333;28;20218;-92
2021/06/11 02:55:01;;;;;;;13.85;12.70;;;20.90;72.30;;;;;;5061620;28;20181;-91
2021/06/11 02:57:50;;;;;;;12.82;11.93;;;20.90;72.70;;;;;;5096023;28;20167;-92
2021/06/11 03:00:17;;;;;;;12.43;11.32;;;20.90;72.30;;;;;;5073200;28;20235;-94
2021/06/11 03:02:53;;;;;;;12.75;11.75;;;20.90;72.40;;;;;;5073170;28;20256;-93
2021/06/11 03:05:21;;;;;;;12.73;11.73;;;20.90;72.50;;;;;;5040617;28;20186;-92
2021/06/11 03:07:52;;;;;;;13.15;12.18;;;20.80;72.40;;;;;;5055816;28;20173;-93
2021/06/11 03:10:23;;;;;;;13.40;12.30;;;20.70;73.20;;;;;;5039604;28;20245;-94
2021/06/11 03:12:49;;;;;;;13.27;12.07;;;20.70;73.10;;;;;;5054467;28;20576;-94
2021/06/11 03:15:15;;;;;;;13.32;12.30;;;20.60;72.90;;;;;;5055978;28;20183;-93
2021/06/11 03:17:47;;;;;;;13.85;12.82;;;20.30;74.30;;;;;;5073859;28;20166;-93
2021/06/11 03:20:17;;;;;;;13.85;12.65;;;20.30;75.10;;;;;;5073331;28;20162;-92
2021/06/11 03:22:56;;;;;;;13.15;12.18;;;20.30;74.50;;;;;;5066318;28;20187;-94
2021/06/11 03:25:40;;;;;;;13.98;12.90;;;20.20;75.90;;;;;;5094219;28;20181;-92
2021/06/11 03:28:13;;;;;;;13.85;12.77;;;20.20;75.60;;;;;;5076079;28;20255;-93
2021/06/11 03:30:43;;;;;;;13.52;12.45;;;20.20;75.50;;;;;;5089934;28;20164;-93
2021/06/11 03:33:13;;;;;;;12.88;11.90;;;20.30;75.40;;;;;;5093261;28;20236;-91
2021/06/11 03:35:49;;;;;;;14.05;13.05;;;20.40;74.70;;;;;;5075837;28;20200;-91
2021/06/11 03:38:23;;;;;;;13.52;12.43;;;20.40;74.30;;;;;;5075838;28;20178;-93
2021/06/11 03:40:49;;;;;;;12.93;11.95;;;20.40;74.00;;;;;;5077259;28;20203;-92
2021/06/11 03:43:16;;;;;;;14.18;13.15;;;20.50;74.30;;;;;;5078110;28;20205;-92
2021/06/11 03:45:43;;;;;;;13.52;12.27;;;20.50;73.20;;;;;;5092332;28;20177;-93
2021/06/11 03:48:11;;;;;;;12.70;11.75;;;20.50;73.90;;;;;;5086669;28;20160;-92
2021/06/11 03:50:38;;;;;;;13.45;12.48;;;20.30;74.20;;;;;;5041971;28;20645;-92
2021/06/11 03:53:06;;;;;;;12.30;11.35;;;20.30;74.10;;;;;;5040647;28;20752;-93
2021/06/11 03:55:39;;;;;;;11.90;10.77;;;20.30;74.20;;;;;;5074184;28;20193;-94
2021/06/11 03:58:11;;;;;;;12.43;11.40;;;20.40;73.80;;;;;;5075005;28;20265;-92
2021/06/11 04:00:38;;;;;;;12.27;11.43;;;20.40;73.80;;;;;;5056102;28;20177;-93
2021/06/11 04:03:04;;;;;;;12.95;11.95;;;20.30;74.70;;;;;;5054009;28;20358;-93
2021/06/11 04:05:30;;;;;;;12.00;11.20;;;20.40;74.30;;;;;;5054052;28;20181;-92
2021/06/11 04:07:57;;;;;;;13.43;12.43;;;20.40;74.20;;;;;;5052903;28;20259;-93
2021/06/11 04:10:42;;;;;;;14.27;13.13;;;20.40;74.30;;;;;;5070002;28;20169;-92
2021/06/11 04:13:16;;;;;;;13.30;12.30;;;20.40;74.00;;;;;;5071320;28;20304;-94
2021/06/11 04:15:44;;;;;;;14.32;12.43;;;20.30;74.30;;;;;;5054109;28;20187;-93
2021/06/11 04:18:13;;;;;;;13.07;11.90;;;20.30;74.50;;;;;;5054236;28;20179;-93
2021/06/11 04:20:40;;;;;;;12.43;11.50;;;20.40;74.30;;;;;;5062364;28;20230;-91
2021/06/11 04:23:08;;;;;;;14.07;12.88;;;20.30;74.60;;;;;;5097279;28;20195;-93
2021/06/11 04:25:35;;;;;;;13.30;12.00;;;20.30;74.70;;;;;;5066261;28;20236;-90
2021/06/11 04:28:04;;;;;;;12.93;11.82;;;20.30;74.70;;;;;;5096529;28;20186;-91
2021/06/11 04:30:30;;;;;;;13.77;12.77;;;20.40;74.40;;;;;;5079130;28;20238;-91
2021/06/11 04:32:56;;;;;;;13.10;11.98;;;20.40;74.30;;;;;;5078266;28;20233;-92
2021/06/11 04:35:27;;;;;;;13.77;12.68;;;20.40;74.60;;;;;;5075712;28;20205;-92
2021/06/11 04:37:55;;;;;;;15.18;13.93;;;20.40;75.00;;;;;;5058182;28;20227;-94
2021/06/11 04:40:21;;;;;;;14.77;13.68;;;20.40;75.20;;;;;;5057717;28;20201;-91
2021/06/11 04:42:47;;;;;;;14.50;13.43;;;20.40;76.10;;;;;;5074792;28;20213;-94
2021/06/11 04:45:13;;;;;;;15.55;14.27;;;20.50;76.00;;;;;;5069001;28;20194;-94
2021/06/11 04:47:39;;;;;;;14.52;13.40;;;20.60;75.50;;;;;;5093725;28;20190;-94
2021/06/11 04:50:06;;;;;;;16.00;14.77;;;20.60;75.30;;;;;;5079679;28;20229;-90
2021/06/11 04:52:31;;;;;;;14.68;13.57;;;20.70;75.40;;;;;;5061567;28;20217;-92
2021/06/11 04:54:57;;;;;;;16.15;14.65;;;20.60;75.10;;;;;;5069269;28;20196;-90
2021/06/11 04:57:22;;;;;;;15.30;13.55;;;20.60;75.30;;;;;;5046037;28;20193;-93
2021/06/11 04:59:48;;;;;;;15.45;14.25;;;20.60;75.10;;;;;;5058515;28;20182;-92
2021/06/11 05:02:14;;;;;;;16.45;14.90;;;20.70;74.70;;;;;;5073855;28;20234;-93
2021/06/11 05:04:40;;;;;;;14.40;13.40;;;20.60;75.30;;;;;;5054399;28;20190;-94
2021/06/11 05:07:05;;;;;;;15.13;13.75;;;20.50;75.80;;;;;;5074016;28;20183;-94
2021/06/11 05:09:31;;;;;;;15.98;14.52;;;20.60;76.00;;;;;;5055679;28;20280;-94
2021/06/11 05:11:57;;;;;;;15.15;13.88;;;20.60;76.00;;;;;;5054003;28;20218;-94
2021/06/11 05:14:23;;;;;;;14.25;13.15;;;20.50;76.10;;;;;;5072390;28;20542;-92
2021/06/11 05:16:48;;;;;;;15.75;14.65;;;20.50;76.00;;;;;;5074548;28;20354;-94
2021/06/11 05:19:14;;;;;;;15.32;14.23;;;20.60;75.20;;;;;;5093075;28;20569;-90
2021/06/11 05:21:40;;;;;;;17.30;15.73;;;20.70;75.30;;;;;;5079524;28;20190;-89
2021/06/11 05:24:06;;;;;;;17.65;16.35;;;20.60;75.70;;;;;;5094230;28;20167;-92
2021/06/11 05:26:32;;;;;;;16.38;15.00;;;20.60;75.30;;;;;;5092114;28;20193;-93
2021/06/11 05:28:58;;;;;;;17.60;16.05;;;20.60;75.80;;;;;;5094192;28;20204;-93
2021/06/11 05:31:23;;;;;;;17.20;15.45;;;20.70;76.50;;;;;;5095116;28;20202;-91
2021/06/11 05:33:49;;;;;;;16.77;15.27;;;20.70;76.50;;;;;;5072864;28;20178;-90
2021/06/11 05:36:15;;;;;;;16.75;15.02;;;20.70;76.00;;;;;;5077540;28;20235;-93
2021/06/11 05:38:42;;;;;;;16.75;15.45;;;20.70;75.40;;;;;;5059912;28;20170;-93
2021/06/11 05:41:08;;;;;;;17.13;15.93;;;20.80;75.20;;;;;;5077572;28;20168;-91
2021/06/11 05:43:34;;;;;;;17.15;15.85;;;20.80;75.00;;;;;;5059878;28;20249;-92
2021/06/11 05:46:00;;;;;;;17.90;16.50;;;20.90;75.00;;;;;;5054518;28;20179;-91
2021/06/11 05:48:26;;;;;;;17.50;15.95;;;20.90;75.70;;;;;;5097675;28;20383;-92
2021/06/11 05:50:52;;;;;;;16.10;15.00;;;20.80;75.80;;;;;;5062659;28;20214;-92
2021/06/11 05:53:22;;;;;;;18.50;16.90;;;20.90;75.80;;;;;;5061556;28;20207;-93
2021/06/11 05:55:49;;;;;;;17.67;16.30;;;21.00;75.80;;;;;;5079236;28;20223;-94
2021/06/11 05:58:15;;;;;;;17.88;16.63;;;21.10;75.80;;;;;;5079134;28;20251;-91
2021/06/11 06:00:41;;;;;;;18.25;16.85;;;21.20;75.70;;;;;;5077970;28;20182;-90
2021/06/11 06:03:07;;;;;;;17.52;16.23;;;21.00;75.90;;;;;;5083792;28;20183;-90
2021/06/11 06:05:33;;;;;;;17.67;16.27;;;21.00;76.00;;;;;;5090811;28;20237;-91
2021/06/11 06:07:59;;;;;;;20.13;18.30;;;21.00;75.90;;;;;;5094486;28;20182;-93
2021/06/11 06:10:24;;;;;;;17.05;15.65;;;21.20;75.50;;;;;;5071935;28;20196;-90
2021/06/11 06:12:50;;;;;;;18.80;17.17;;;21.20;74.50;;;;;;5071137;28;20219;-90
2021/06/11 06:15:16;;;;;;;20.17;18.30;;;21.30;74.40;;;;;;5055496;28;20215;-93
2021/06/11 06:17:42;;;;;;;19.98;18.38;;;21.30;74.30;;;;;;5056815;28;20207;-89
2021/06/11 06:20:09;;;;;;;20.08;18.48;;;21.30;74.60;;;;;;5074468;28;20175;-91
2021/06/11 06:22:35;;;;;;;18.40;17.05;;;21.10;75.30;;;;;;5059094;28;20218;-91
2021/06/11 06:25:02;;;;;;;18.30;16.98;;;21.20;74.20;;;;;;5049193;28;20211;-92
2021/06/11 06:27:27;;;;;;;17.38;15.90;;;21.30;74.00;;;;;;5074057;28;20190;-91
2021/06/11 06:29:53;;;;;;;17.60;16.23;;;21.30;74.00;;;;;;5069178;28;20174;-90
2021/06/11 06:32:19;;;;;;;17.60;16.30;;;21.30;71.90;;;;;;5052459;28;20225;-90
2021/06/11 06:34:45;;;;;;;18.23;16.83;;;21.20;73.00;;;;;;5054794;28;20195;-92
2021/06/11 06:37:11;;;;;;;17.48;15.95;;;21.30;72.60;;;;;;5062413;28;20185;-92
2021/06/11 06:39:40;;;;;;;17.58;16.17;;;21.20;72.60;;;;;;5091832;28;20235;-91
2021/06/11 06:42:06;;;;;;;18.85;17.20;;;21.20;73.80;;;;;;5082164;28;20198;-93
2021/06/11 06:44:33;;;;;;;18.95;17.42;;;21.40;73.80;;;;;;5082823;28;20179;-91
2021/06/11 06:46:59;;;;;;;18.23;16.83;;;21.50;73.90;;;;;;5087920;28;20231;-90
2021/06/11 06:49:25;;;;;;;18.40;16.98;;;21.40;74.80;;;;;;5070717;28;20182;-90
2021/06/11 06:51:50;;;;;;;19.17;17.67;;;21.60;74.40;;;;;;5087212;28;20230;-93
2021/06/11 06:54:16;;;;;;;17.73;16.42;;;21.70;73.50;;;;;;5094441;28;20188;-89
2021/06/11 06:56:41;;;;;;;19.60;17.90;;;21.80;73.70;;;;;;5074482;28;20203;-90
2021/06/11 06:59:07;;;;;;;18.58;17.20;;;21.90;72.50;;;;;;5069321;28;20289;-93
2021/06/11 07:01:33;;;;;;;18.45;16.73;;;21.90;72.50;;;;;;5038185;28;20191;-92
2021/06/11 07:04:01;;;;;;;19.63;18.08;;;22.00;72.70;;;;;;5074372;28;20199;-93
2021/06/11 07:06:27;;;;;;;19.90;18.20;;;22.00;73.50;;;;;;5085541;28;20192;-90
2021/06/11 07:08:54;;;;;;;18.33;16.77;;;22.00;73.60;;;;;;5084127;28;20258;-89
2021/06/11 07:11:20;;;;;;;17.40;16.20;;;22.00;74.00;;;;;;5054867;28;20238;-92
2021/06/11 07:13:46;;;;;;;17.90;16.50;;;22.10;73.50;;;;;;5059579;28;20223;-92
2021/06/11 07:16:12;;;;;;;17.50;16.20;;;22.30;72.60;;;;;;5074873;28;20196;-93
2021/06/11 07:18:38;;;;;;;17.65;16.35;;;22.40;71.50;;;;;;5033531;28;20290;-89
2021/06/11 07:21:08;;;;;;;17.70;16.27;;;22.50;71.20;;;;;;5029387;28;20191;-92
2021/06/11 07:23:35;;;;;;;17.45;16.15;;;22.50;71.40;;;;;;5047972;28;20638;-91
2021/06/11 07:26:08;;;;;;;17.75;16.25;;;22.40;71.80;;;;;;5086154;28;20178;-91
2021/06/11 07:28:35;;;;;;;18.08;16.60;;;22.50;71.60;;;;;;5074895;28;20230;-92
2021/06/11 07:31:01;;;;;;;17.70;16.17;;;22.50;71.30;;;;;;5071437;28;20191;-92
2021/06/11 07:33:27;;;;;;;20.15;18.58;;;22.60;71.10;;;;;;5067522;28;20229;-93
2021/06/11 07:35:55;;;;;;;20.02;18.58;;;22.80;72.00;;;;;;5079724;28;20588;-92
2021/06/11 07:38:21;;;;;;;19.90;18.27;;;22.80;71.70;;;;;;5061864;28;20186;-92
2021/06/11 07:40:49;;;;;;;20.23;18.52;;;22.80;71.30;;;;;;5090639;28;20183;-92
2021/06/11 07:43:15;;;;;;;19.63;18.02;;;22.70;71.90;;;;;;5081187;28;20294;-92
2021/06/11 07:45:41;;;;;;;18.90;17.58;;;22.80;71.00;;;;;;5059714;28;20211;-91
2021/06/11 07:48:07;;;;;;;20.13;18.67;;;22.90;70.60;;;;;;5027034;28;20269;-92
2021/06/11 07:50:33;;;;;;;20.77;19.05;;;22.90;70.20;;;;;;5058060;28;20191;-93
2021/06/11 07:52:59;;;;;;;19.52;17.92;;;22.90;71.50;;;;;;5068205;28;20219;-86
2021/06/11 07:55:24;;;;;;;19.50;18.02;;;23.10;70.30;;;;;;5058273;28;20208;-86
2021/06/11 07:57:50;;;;;;;21.17;19.58;;;23.10;70.90;;;;;;5078958;28;20207;-86
2021/06/11 08:00:16;;;;;;;21.75;19.88;;;23.00;70.70;;;;;;5060887;28;20207;-85
2021/06/11 08:02:42;;;;;;;19.63;18.13;;;22.90;72.00;;;;;;5064678;28;20215;-88
2021/06/11 08:05:10;;;;;;;20.75;18.73;;;23.10;72.30;;;;;;5052987;28;20188;-87
2021/06/11 08:07:36;;;;;;;20.90;19.23;;;23.10;72.20;;;;;;5051117;28;20282;-84
2021/06/11 08:10:04;;;;;;;20.13;18.67;;;23.20;71.30;;;;;;5091363;28;20199;-92
2021/06/11 08:12:31;;;;;;;22.15;20.20;;;23.50;71.40;;;;;;5075198;28;20207;-93
2021/06/11 08:14:57;;;;;;;21.63;19.98;;;23.60;71.30;;;;;;5075630;28;20175;-91
2021/06/11 08:17:25;;;;;;;22.58;20.73;;;23.70;68.50;;;;;;5073530;28;20225;-92
2021/06/11 08:19:51;;;;;;;20.85;19.17;;;23.80;66.90;;;;;;5039815;28;20210;-92
2021/06/11 08:22:17;;;;;;;20.13;18.52;;;23.80;67.60;;;;;;5057618;28;20204;-91
2021/06/11 08:24:43;;;;;;;18.83;17.48;;;24.00;67.20;;;;;;5059617;28;20184;-91
2021/06/11 08:27:12;;;;;;;21.85;20.15;;;24.20;65.50;;;;;;5063902;28;20189;-91
2021/06/11 08:29:39;;;;;;;18.48;17.17;;;24.30;64.70;;;;;;5075526;28;20184;-93
2021/06/11 08:32:06;;;;;;;17.60;16.08;;;24.20;60.20;;;;;;5092371;28;20207;-92
2021/06/11 08:34:35;;;;;;;21.73;20.13;;;24.30;61.30;;;;;;5053258;28;20211;-91
2021/06/11 08:37:02;;;;;;;19.90;18.40;;;24.60;63.00;;;;;;5068339;28;20179;-92
2021/06/11 08:39:28;;;;;;;20.30;18.65;;;24.70;62.80;;;;;;5050996;28;20264;-91
2021/06/11 08:41:56;;;;;;;17.38;16.08;;;24.90;62.20;;;;;;5045333;28;20243;-93
2021/06/11 08:44:23;;;;;;;18.13;16.73;;;24.90;62.20;;;;;;5077886;28;20210;-92
2021/06/11 08:46:49;;;;;;;20.42;18.65;;;25.00;60.50;;;;;;5060847;28;20172;-92
2021/06/11 08:49:16;;;;;;;18.30;16.80;;;25.10;61.10;;;;;;5058890;28;20198;-92
2021/06/11 08:51:41;;;;;;;18.92;17.52;;;25.20;60.90;;;;;;5075968;28;20211;-91
2021/06/11 08:54:07;;;;;;;18.30;16.90;;;25.30;60.60;;;;;;5047316;28;20200;-93
2021/06/11 08:56:34;;;;;;;17.63;16.17;;;25.40;61.90;;;;;;5022054;28;20199;-91
2021/06/11 08:58:59;;;;;;;18.40;17.00;;;25.60;60.10;;;;;;5060170;28;20172;-91
2021/06/11 09:01:25;;;;;;;17.30;16.00;;;25.80;58.50;;;;;;5038059;28;20310;-92
2021/06/11 09:03:56;;;;;;;15.43;14.20;;;26.00;59.80;;;;;;5030439;28;20192;-93
2021/06/11 09:06:23;;;;;;;16.65;15.45;;;26.10;57.80;;;;;;5038083;28;20686;-91
2021/06/11 09:08:54;;;;;;;17.35;15.95;;;26.10;57.90;;;;;;5033762;28;20176;-92
2021/06/11 09:11:31;;;;;;;16.77;15.32;;;26.10;56.40;;;;;;5080794;28;20272;-93
2021/06/11 09:14:12;;;;;;;16.83;15.38;;;26.30;56.60;;;;;;5053630;28;20160;-93
2021/06/11 09:16:51;;;;;;;15.63;14.50;;;26.30;54.90;;;;;;5081509;28;20156;-92
2021/06/11 09:19:23;;;;;;;15.25;13.90;;;26.30;54.10;;;;;;5065455;28;20653;-92
2021/06/11 09:22:32;;;;;;;15.13;13.68;;;26.40;52.80;;;;;;5080723;28;20203;-91
2021/06/11 09:25:48;;;;;;;16.35;14.77;;;26.60;54.90;;;;;;5063523;28;20184;-93
2021/06/11 09:59:06;;;;;;;13.52;12.15;;;28.00;46.60;;;;;;5078973;22;20716;-90
2021/06/11 10:01:32;;;;;;;11.43;10.63;;;28.40;47.00;;;;;;5053454;28;20196;-94
2021/06/11 10:04:05;;;;;;;10.45;9.75;;;28.70;45.60;;;;;;5051042;28;20212;-94
2021/06/11 10:06:31;;;;;;;10.27;9.40;;;28.70;45.00;;;;;;5050886;28;20268;-93
2021/06/11 10:08:57;;;;;;;10.38;9.57;;;28.70;44.90;;;;;;5048675;28;20637;-91
2021/06/11 10:11:25;;;;;;;10.40;9.48;;;28.80;42.80;;;;;;5021871;28;20212;-91
2021/06/11 10:13:53;;;;;;;8.90;8.20;;;28.50;40.20;;;;;;5039311;28;20203;-91
2021/06/11 10:16:19;;;;;;;9.80;8.70;;;28.70;40.00;;;;;;5048704;28;20191;-91
2021/06/11 10:18:46;;;;;;;9.32;8.63;;;28.80;40.00;;;;;;5050766;28;20191;-92
2021/06/11 10:21:13;;;;;;;8.65;7.80;;;29.30;39.80;;;;;;5048948;28;20553;-91
2021/06/11 10:23:40;;;;;;;7.95;7.43;;;29.60;38.70;;;;;;5037619;28;20592;-94
2021/06/11 10:26:08;;;;;;;7.75;7.10;;;29.80;38.10;;;;;;5021949;28;20189;-92
2021/06/11 10:28:49;;;;;;;8.80;7.97;;;29.90;36.10;;;;;;5048598;28;20192;-90
2021/06/11 10:31:16;;;;;;;8.15;7.55;;;30.10;38.70;;;;;;5024468;28;20193;-90
2021/06/11 10:33:45;;;;;;;6.97;6.47;;;30.00;37.30;;;;;;5036512;28;20185;-90
2021/06/11 10:36:26;;;;;;;6.90;6.40;;;29.80;35.90;;;;;;5040919;28;20235;-90
2021/06/11 10:39:01;;;;;;;6.70;6.13;;;30.10;34.90;;;;;;5043127;28;20187;-91
2021/06/11 10:41:50;;;;;;;7.22;6.72;;;30.00;35.30;;;;;;5028346;28;20179;-90
2021/06/11 10:44:52;;;;;;;9.68;7.75;;;30.10;35.20;;;;;;5033390;28;20220;-91
2021/06/11 10:50:54;;;;;;;8.05;7.28;;;30.20;35.80;;;;;;5055958;28;20189;-93
2021/06/11 10:53:42;;;;;;;;;;;;;;;;;;;;;
2021/06/11 10:56:14;;;;;;;8.25;7.55;;;29.30;38.70;;;;;;5038028;28;20271;-92
2021/06/11 11:05:40;;;;;;;9.80;8.77;;;30.10;39.30;;;;;;5045191;28;20241;-93
2021/06/11 11:08:13;;;;;;;9.18;8.35;;;30.60;37.60;;;;;;5039139;28;20655;-92
2021/06/11 11:10:51;;;;;;;8.88;8.27;;;30.80;37.50;;;;;;5035342;28;20185;-91
2021/06/11 11:13:44;;;;;;;11.00;10.20;;;30.80;38.20;;;;;;5031403;28;20218;-91
2021/06/11 11:16:29;;;;;;;11.05;10.25;;;30.80;37.60;;;;;;5052095;28;20263;-92
2021/06/11 11:19:36;;;;;;;10.35;9.55;;;30.70;37.60;;;;;;5060944;28;20188;-91
2021/06/11 11:22:35;;;;;;;10.00;9.30;;;30.80;36.50;;;;;;5033127;28;20208;-90
2021/06/11 11:25:05;;;;;;;9.70;9.10;;;31.20;35.90;;;;;;5010836;28;20237;-90
2021/06/11 11:27:32;;;;;;;9.10;8.50;;;31.10;38.00;;;;;;5045011;28;20188;-90
2021/06/11 11:29:58;;;;;;;8.40;7.80;;;30.80;37.30;;;;;;5045444;28;20181;-90
2021/06/11 11:32:31;;;;;;;7.75;6.95;;;31.10;36.60;;;;;;5047884;28;20208;-90
2021/06/11 11:34:56;;;;;;;7.85;7.35;;;31.10;35.30;;;;;;5042852;28;20339;-90
2021/06/11 11:37:22;;;;;;;8.15;7.45;;;30.90;35.20;;;;;;5048995;28;20205;-90
2021/06/11 11:39:48;;;;;;;7.28;6.68;;;30.90;35.30;;;;;;5048493;28;20185;-90
2021/06/11 11:42:34;;;;;;;8.40;7.80;;;31.20;35.10;;;;;;5046634;28;20189;-90
2021/06/11 11:45:00;;;;;;;8.35;7.65;;;31.10;35.90;;;;;;5046500;28;20272;-90
2021/06/11 11:47:25;;;;;;;7.80;7.28;;;31.10;36.00;;;;;;5025672;28;20212;-90
2021/06/11 11:49:51;;;;;;;7.65;6.97;;;31.30;35.80;;;;;;5043536;28;20639;-90
2021/06/11 11:52:22;;;;;;;7.38;6.88;;;31.50;34.40;;;;;;5043520;28;20212;-91
2021/06/11 11:54:47;;;;;;;7.78;7.18;;;31.50;35.00;;;;;;5029707;28;20230;-91
2021/06/11 11:57:13;;;;;;;8.43;7.75;;;31.60;34.50;;;;;;5040151;28;20654;-90
2021/06/11 11:59:39;;;;;;;8.70;8.10;;;32.00;35.40;;;;;;5042718;28;20287;-90
2021/06/11 12:02:08;;;;;;;8.43;7.72;;;32.20;35.20;;;;;;5029382;28;20250;-90
2021/06/11 12:04:34;;;;;;;9.50;8.80;;;32.10;35.40;;;;;;5044570;28;20208;-90
2021/06/11 12:07:00;;;;;;;7.38;6.80;;;32.00;35.20;;;;;;5044339;28;20852;-89
2021/06/11 12:09:26;;;;;;;7.07;6.60;;;31.90;33.00;;;;;;5046983;28;20177;-89
2021/06/11 12:11:51;;;;;;;8.13;7.20;;;31.70;33.50;;;;;;5051823;28;20216;-87
2021/06/11 12:14:17;;;;;;;8.00;7.03;;;31.80;34.20;;;;;;5057174;28;20196;-86
2021/06/11 12:16:43;;;;;;;7.82;7.22;;;31.80;35.60;;;;;;5055296;28;20188;-88
2021/06/11 12:19:09;;;;;;;7.90;7.03;;;32.10;34.50;;;;;;5054180;28;20187;-87
2021/06/11 12:21:34;;;;;;;7.45;6.85;;;32.20;34.30;;;;;;5051223;28;20195;-89
2021/06/11 12:24:00;;;;;;;7.78;7.18;;;32.70;33.80;;;;;;5052617;28;20201;-89
2021/06/11 12:26:26;;;;;;;7.40;6.80;;;32.80;32.00;;;;;;5042610;28;20201;-88
2021/06/11 12:28:52;;;;;;;8.07;7.47;;;32.40;34.00;;;;;;5030402;28;20553;-89
2021/06/11 12:31:18;;;;;;;8.88;8.10;;;32.70;32.80;;;;;;5054294;28;20180;-87
2021/06/11 12:33:44;;;;;;;8.00;7.50;;;32.50;33.00;;;;;;5036349;28;20205;-88
2021/06/11 12:36:10;;;;;;;7.72;7.22;;;32.40;33.30;;;;;;5039645;28;20181;-89
2021/06/11 12:38:45;;;;;;;8.05;7.45;;;32.80;32.50;;;;;;5021553;28;20253;-88
2021/06/11 12:41:20;;;;;;;7.28;6.88;;;33.10;31.90;;;;;;5057707;28;20205;-88
2021/06/11 12:46:32;;;;;;;7.88;7.28;;;34.00;34.00;;;;;;5060457;28;20226;-88
2021/06/11 12:48:58;;;;;;;7.75;7.15;;;34.40;32.30;;;;;;5057536;28;20164;-88
2021/06/11 12:51:24;;;;;;;7.13;6.63;;;34.80;30.90;;;;;;5057980;28;20984;-88
2021/06/11 12:53:50;;;;;;;7.65;6.90;;;34.80;29.50;;;;;;5073063;28;20266;-88
2021/06/11 12:56:17;;;;;;;7.38;6.88;;;35.00;29.50;;;;;;5051567;28;20241;-90
2021/06/11 12:58:43;;;;;;;7.85;7.20;;;35.10;28.80;;;;;;5069555;28;20199;-88
2021/06/11 13:01:09;;;;;;;6.95;6.45;;;35.10;29.00;;;;;;5048145;28;20671;-88
2021/06/11 13:03:35;;;;;;;8.63;7.93;;;35.10;29.10;;;;;;5062760;28;20252;-89
2021/06/11 13:06:02;;;;;;;8.00;7.40;;;35.20;29.80;;;;;;5068223;28;20172;-89
2021/06/11 13:08:28;;;;;;;7.82;7.03;;;35.40;30.30;;;;;;5069284;28;20319;-88
2021/06/11 13:10:54;;;;;;;7.80;7.28;;;35.50;29.70;;;;;;5077345;28;20192;-87
2021/06/11 13:13:20;;;;;;;8.15;7.65;;;35.60;29.70;;;;;;5072323;28;20204;-89
2021/06/11 13:15:46;;;;;;;8.10;7.40;;;35.70;29.60;;;;;;5069026;28;20292;-88
2021/06/11 13:18:15;;;;;;;8.27;7.78;;;35.50;29.20;;;;;;5048436;28;20247;-89
2021/06/11 13:20:41;;;;;;;7.72;7.13;;;35.10;29.70;;;;;;5137117;23;20216;-89
2021/06/11 13:23:08;;;;;;;7.72;7.13;;;35.30;29.30;;;;;;5042921;28;20202;-91
2021/06/11 13:25:39;;;;;;;7.60;7.20;;;35.50;29.40;;;;;;5030674;28;20217;-89